Time;durP1;ratioP1;P1;durP2;ratioP2;P2;SDS_P1;SDS_P2;PMS_P1;PMS_P2;Temp;Humidity;BMP_temperature;BMP_pressure;BME280_temperature;BME280_humidity;BME280_pressure;Samples;Min_cycle;Max_cycle;Signal;HPM_P1;HPM_P2
2021/01/26 00:01:06;;;;;;;5.00;3.08;;;;;;;6.80;86.46;96929.61;1713971;83;21303;-60
2021/01/26 00:03:34;;;;;;;5.50;3.60;;;;;;;6.84;86.24;96929.19;1709189;83;21172;-60
2021/01/26 00:06:02;;;;;;;4.62;3.25;;;;;;;6.68;86.67;96934.27;1704793;83;21212;-60
2021/01/26 00:08:29;;;;;;;5.22;3.17;;;;;;;6.65;86.80;96924.63;1671825;83;21173;-60
2021/01/26 00:10:58;;;;;;;5.15;3.55;;;;;;;6.66;86.65;96922.18;1718411;83;21153;-60
2021/01/26 00:13:25;;;;;;;5.78;3.27;;;;;;;6.60;86.76;96924.77;1716419;83;21206;-60
2021/01/26 00:15:52;;;;;;;6.60;3.55;;;;;;;6.60;86.75;96924.22;1695060;83;21180;-59
2021/01/26 00:18:20;;;;;;;6.65;4.03;;;;;;;6.64;86.54;96915.72;1719599;83;21157;-59
2021/01/26 00:20:48;;;;;;;6.00;3.95;;;;;;;6.57;86.78;96922.69;1708329;83;21310;-60
2021/01/26 00:23:15;;;;;;;5.90;3.75;;;;;;;6.55;86.91;96923.02;1660055;86;21350;-59
2021/01/26 00:25:43;;;;;;;1.20;0.72;;;;;;;6.61;86.83;96958.25;1679123;85;21160;-59
2021/01/26 00:28:12;;;;;;;1.40;0.82;;;;;;;6.26;81.24;96965.42;1686288;85;21214;-60
2021/01/26 00:30:41;;;;;;;1.10;0.72;;;;;;;5.71;78.98;96976.23;1700684;84;21320;-60
2021/01/26 00:33:16;;;;;;;1.35;0.80;;;;;;;5.31;79.27;96984.75;1711000;83;21210;-61
2021/01/26 00:35:43;;;;;;;1.10;0.70;;;;;;;4.89;79.70;96993.99;1701298;83;21157;-60
2021/01/26 00:38:11;;;;;;;1.50;0.60;;;;;;;4.53;80.11;97006.83;1722572;83;21165;-59
2021/01/26 00:40:38;;;;;;;1.00;0.68;;;;;;;4.30;80.48;97003.78;1717811;83;21617;-59
2021/01/26 00:45:12;;;;;;;1.45;0.88;;;;;;;3.79;79.87;97011.14;1788185;79;22967;-59
2021/01/26 00:47:39;;;;;;;1.25;0.75;;;;;;;3.36;80.36;97022.56;1783574;80;21789;-60
2021/01/26 00:50:08;;;;;;;1.20;1.00;;;;;;;3.16;81.01;97013.41;1761395;80;21162;-60
2021/01/26 00:52:36;;;;;;;1.20;0.90;;;;;;;2.92;81.42;97020.19;1761801;80;21141;-59
2021/01/26 00:55:07;;;;;;;1.25;0.85;;;;;;;2.63;82.39;97017.58;1731969;81;21300;-59
2021/01/26 00:57:35;;;;;;;1.17;0.80;;;;;;;2.60;82.31;97026.75;1717495;83;21205;-59
2021/01/26 01:00:07;;;;;;;1.47;1.10;;;;;;;2.46;82.67;97027.44;1739814;81;21196;-60
2021/01/26 01:02:36;;;;;;;1.42;1.00;;;;;;;2.28;83.25;97026.82;1704502;83;21339;-59
2021/01/26 01:05:07;;;;;;;1.10;0.90;;;;;;;2.18;83.40;97018.88;1745628;81;21303;-60
2021/01/26 01:07:35;;;;;;;1.37;0.90;;;;;;;2.18;83.30;97021.56;1705575;83;21161;-60
2021/01/26 01:10:05;;;;;;;1.37;0.90;;;;;;;2.00;83.73;97020.38;1724946;83;21626;-60
2021/01/26 01:12:34;;;;;;;1.22;0.80;;;;;;;1.93;83.88;97031.98;1753026;81;21186;-61
2021/01/26 01:15:01;;;;;;;1.30;1.02;;;;;;;1.96;83.67;97029.27;1708694;83;21323;-59
2021/01/26 01:17:28;;;;;;;1.52;1.00;;;;;;;1.87;83.68;97033.66;1757507;81;21314;-61
2021/01/26 01:19:56;;;;;;;1.70;0.90;;;;;;;1.82;83.85;97029.66;1730609;83;21117;-61
2021/01/26 01:22:24;;;;;;;1.30;0.82;;;;;;;1.81;83.65;97046.83;1760041;81;21214;-60
2021/01/26 01:24:51;;;;;;;1.55;1.10;;;;;;;1.79;83.67;97051.69;1730146;81;21581;-60
2021/01/26 01:27:19;;;;;;;1.52;1.00;;;;;;;1.65;84.00;97061.45;1716171;82;21200;-60
2021/01/26 01:29:46;;;;;;;1.40;1.10;;;;;;;1.58;84.22;97064.98;1723179;81;21595;-60
2021/01/26 01:32:14;;;;;;;1.65;0.90;;;;;;;1.60;84.03;97074.87;1732553;81;21122;-59
2021/01/26 01:34:42;;;;;;;1.15;0.90;;;;;;;1.56;84.04;97067.92;1717249;82;21178;-60
2021/01/26 01:37:09;;;;;;;0.95;0.60;;;;;;;1.49;84.36;97068.24;1725648;82;21168;-58
2021/01/26 01:39:37;;;;;;;2.05;1.32;;;;;;;1.53;84.14;97077.88;1735881;82;21255;-59
2021/01/26 01:42:09;;;;;;;1.40;1.02;;;;;;;1.49;84.31;97091.03;1736126;82;21583;-59
2021/01/26 01:44:37;;;;;;;1.40;0.90;;;;;;;1.42;84.62;97101.26;1697256;83;21210;-59
2021/01/26 01:47:08;;;;;;;1.30;0.80;;;;;;;1.48;84.51;97113.58;1706945;83;21162;-59
2021/01/26 01:49:43;;;;;;;1.35;0.90;;;;;;;1.47;84.55;97105.80;1757403;81;21102;-60
2021/01/26 01:52:19;;;;;;;1.45;0.90;;;;;;;1.38;84.82;97122.22;1772660;81;21102;-62
2021/01/26 01:55:09;;;;;;;1.87;1.05;;;;;;;1.37;84.65;97112.03;1778452;81;21148;-61
2021/01/26 01:57:42;;;;;;;2.15;1.20;;;;;;;1.42;84.63;97128.60;1763691;81;21666;-61
2021/01/26 02:00:12;;;;;;;1.90;1.17;;;;;;;1.37;84.83;97137.49;1747520;81;21553;-61
2021/01/26 02:02:52;;;;;;;2.05;1.35;;;;;;;1.29;85.28;97143.42;1742597;81;21324;-61
2021/01/26 02:05:21;;;;;;;2.55;1.32;;;;;;;1.33;84.93;97145.02;1743783;80;21166;-61
2021/01/26 02:07:48;;;;;;;2.45;1.20;;;;;;;1.33;84.65;97162.43;1774786;81;21198;-61
2021/01/26 02:10:16;;;;;;;1.05;0.80;;;;;;;1.26;84.89;97167.28;1759052;79;63614;-66
2021/01/26 02:12:44;;;;;;;1.42;1.00;;;;;;;1.28;84.66;97178.52;1733596;82;21302;-69
2021/01/26 02:15:12;;;;;;;1.80;0.93;;;;;;;1.27;84.74;97187.13;1725118;82;21279;-68
2021/01/26 02:18:06;;;;;;;1.67;0.90;;;;;;;1.22;85.01;97203.21;1735374;81;21178;-68
2021/01/26 02:20:58;;;;;;;1.90;1.10;;;;;;;1.23;84.87;97211.52;1732964;83;21631;-69
2021/01/26 02:23:52;;;;;;;2.60;1.22;;;;;;;1.25;84.63;97210.70;1726024;81;21208;-68
2021/01/26 02:26:31;;;;;;;3.25;1.20;;;;;;;1.15;84.90;97212.08;1737129;81;21823;-68
2021/01/26 02:29:01;;;;;;;1.62;0.90;;;;;;;1.12;84.93;97205.92;1727275;81;21766;-68
2021/01/26 02:31:58;;;;;;;1.92;1.00;;;;;;;1.16;84.53;97215.03;1734886;81;21716;-66
2021/01/26 02:35:06;;;;;;;3.70;1.10;;;;;;;1.13;84.53;97212.09;1713215;81;21224;-68
2021/01/26 02:37:55;;;;;;;1.45;1.00;;;;;;;1.07;84.69;97217.17;1740117;81;21160;-68
2021/01/26 02:40:35;;;;;;;2.12;1.20;;;;;;;1.09;84.56;97220.41;1733258;81;21200;-68
2021/01/26 02:43:32;;;;;;;2.87;1.62;;;;;;;0.95;85.03;97228.20;1707078;84;21325;-67
2021/01/26 02:46:28;;;;;;;2.80;1.57;;;;;;;1.00;84.95;97240.23;1708083;82;21619;-67
2021/01/26 02:49:18;;;;;;;3.62;1.98;;;;;;;0.87;85.11;97253.66;1755946;81;21131;-67
2021/01/26 02:51:54;;;;;;;5.37;3.05;;;;;;;0.88;85.14;97268.66;1761729;81;21611;-68
2021/01/26 02:54:45;;;;;;;5.37;3.62;;;;;;;0.83;85.33;97276.69;1761118;81;21124;-67
2021/01/26 02:57:21;;;;;;;6.50;4.12;;;;;;;0.85;84.92;97259.02;1725498;81;21762;-67
2021/01/26 02:59:54;;;;;;;7.45;4.30;;;;;;;0.92;84.40;97270.27;1733990;83;21147;-68
2021/01/26 03:02:36;;;;;;;8.03;5.30;;;;;;;0.91;84.31;97265.98;1728842;81;21593;-68
2021/01/26 03:05:20;;;;;;;7.53;4.72;;;;;;;0.83;84.34;97275.34;1731247;83;21627;-68
2021/01/26 03:07:59;;;;;;;8.40;5.42;;;;;;;0.81;84.01;97292.23;1733939;81;21301;-67
2021/01/26 07:52:40;;;;;;;5.72;3.27;;;;;;;0.49;78.91;97691.36;1774796;76;22244;31
2021/01/26 07:55:25;;;;;;;5.62;3.02;;;;;;;0.63;77.89;97684.22;1668564;84;21211;-67
2021/01/26 07:58:12;;;;;;;3.35;2.02;;;;;;;1.01;76.77;97699.98;1713194;82;21149;-66
2021/01/26 08:00:42;;;;;;;4.35;2.02;;;;;;;1.10;75.33;97691.71;1742514;82;21149;-66
2021/01/26 08:03:09;;;;;;;4.78;2.37;;;;;;;1.14;75.27;97696.83;1737063;82;21195;-67
2021/01/26 08:05:51;;;;;;;4.50;1.67;;;;;;;1.25;75.26;97708.41;1689213;83;21196;-67
2021/01/26 08:08:37;;;;;;;4.08;2.35;;;;;;;1.41;73.98;97681.95;1650478;85;21225;-66
2021/01/26 08:11:20;;;;;;;3.35;2.20;;;;;;;1.44;73.47;97690.28;1694717;82;21143;-67
2021/01/26 08:13:58;;;;;;;4.10;2.35;;;;;;;1.41;73.20;97704.21;1711833;82;21224;-67
2021/01/26 08:16:37;;;;;;;3.15;1.90;;;;;;;1.61;73.29;97710.70;1780000;79;23534;-57
2021/01/26 08:19:18;;;;;;;3.92;2.08;;;;;;;1.65;73.17;97713.13;1733713;82;21737;-57
2021/01/26 08:21:47;;;;;;;3.33;1.85;;;;;;;1.56;72.93;97719.53;1693431;83;21169;-60
2021/01/26 08:24:33;;;;;;;5.25;3.20;;;;;;;1.59;72.67;97726.27;1686386;85;21208;-59
2021/01/26 08:27:26;;;;;;;3.17;1.87;;;;;;;1.72;72.65;97740.52;1683372;85;21209;-60
2021/01/26 08:30:00;;;;;;;3.60;1.90;;;;;;;1.69;73.00;97739.17;1681825;85;21615;-59
2021/01/26 08:32:32;;;;;;;3.35;2.35;;;;;;;1.62;72.63;97747.19;1679221;85;21313;-60
2021/01/26 08:35:23;;;;;;;4.33;2.40;;;;;;;1.68;71.85;97756.86;1684011;85;21360;-60
2021/01/26 08:37:53;;;;;;;6.78;3.30;;;;;;;1.69;71.69;97757.14;1684696;83;21160;-60
2021/01/26 08:40:31;;;;;;;6.12;3.08;;;;;;;1.60;72.12;97764.88;1709850;83;21652;-60
2021/01/26 08:43:03;;;;;;;5.72;3.05;;;;;;;1.73;72.22;97768.96;1659511;85;21183;-60
2021/01/26 08:45:37;;;;;;;5.53;2.87;;;;;;;1.77;71.84;97771.40;1668083;85;21212;-60
2021/01/26 08:48:07;;;;;;;5.50;3.00;;;;;;;1.69;72.08;97784.77;1650582;85;21319;-59
2021/01/26 08:50:39;;;;;;;8.00;3.40;;;;;;;1.63;71.53;97795.75;1675843;83;21625;-59
2021/01/26 08:53:25;;;;;;;6.83;2.92;;;;;;;1.73;71.56;97799.81;1652300;85;21225;-60
2021/01/26 08:55:56;;;;;;;4.90;2.65;;;;;;;1.75;71.58;97799.81;1650531;85;21765;-60
2021/01/26 08:58:46;;;;;;;7.33;3.58;;;;;;;1.69;71.91;97800.05;1666888;85;21166;-60
2021/01/26 09:01:37;;;;;;;6.20;3.00;;;;;;;1.63;72.17;97802.45;1703646;83;21612;-60
2021/01/26 09:04:20;;;;;;;3.98;2.00;;;;;;;1.73;71.41;97803.83;1650166;85;21214;-59
2021/01/26 09:06:48;;;;;;;3.20;1.80;;;;;;;1.67;71.10;97810.22;1641478;85;21314;-59
2021/01/26 09:09:33;;;;;;;4.17;2.20;;;;;;;1.60;71.46;97817.16;1680594;85;21180;-59
2021/01/26 09:12:02;;;;;;;5.47;2.92;;;;;;;1.62;71.75;97828.98;1683185;85;21208;-60
2021/01/26 09:14:48;;;;;;;4.87;2.75;;;;;;;1.61;71.92;97816.64;1671797;85;21197;-60
2021/01/26 09:17:35;;;;;;;5.95;2.25;;;;;;;1.73;71.31;97832.81;1693787;83;21130;-61
2021/01/26 09:20:14;;;;;;;3.92;2.10;;;;;;;1.70;71.06;97849.96;1680168;83;21581;-60
2021/01/26 09:22:41;;;;;;;4.83;2.10;;;;;;;1.58;70.69;97831.38;1710732;83;21153;-59
2021/01/26 09:25:25;;;;;;;3.25;1.90;;;;;;;1.56;71.32;97848.81;1700864;84;21208;-60
2021/01/26 09:28:06;;;;;;;6.20;2.45;;;;;;;1.57;71.32;97864.63;1696241;83;21598;-60
2021/01/26 09:30:37;;;;;;;2.98;1.80;;;;;;;1.53;71.34;97864.05;1698086;84;21238;-60
2021/01/26 09:33:17;;;;;;;3.17;1.72;;;;;;;1.58;71.45;97872.14;1697889;83;21597;-59
2021/01/26 09:35:51;;;;;;;2.87;1.60;;;;;;;1.52;71.34;97860.59;1699448;82;21735;-59
2021/01/26 09:38:29;;;;;;;3.20;1.57;;;;;;;1.52;71.38;97877.20;1731221;81;21173;-59
2021/01/26 09:41:09;;;;;;;4.35;1.82;;;;;;;1.50;71.45;97884.97;1698967;83;21647;-60
2021/01/26 09:43:39;;;;;;;3.30;1.67;;;;;;;1.57;71.47;97883.92;1709373;82;21193;-60
2021/01/26 09:46:30;;;;;;;4.72;2.35;;;;;;;1.60;71.30;97882.87;1709535;83;21279;-60
2021/01/26 09:49:22;;;;;;;3.20;1.80;;;;;;;1.57;71.35;97877.22;1700663;82;21159;-60
2021/01/26 09:52:07;;;;;;;2.92;1.95;;;;;;;1.55;71.36;97898.14;1696569;83;21624;-59
2021/01/26 09:54:39;;;;;;;4.00;2.40;;;;;;;1.58;71.28;97897.09;1699590;83;21206;-59
2021/01/26 09:57:09;;;;;;;5.53;2.62;;;;;;;1.57;71.95;97891.97;1706740;83;21157;-60
2021/01/26 09:59:39;;;;;;;3.75;1.87;;;;;;;1.59;71.85;97904.61;1715913;82;21126;-59
2021/01/26 10:02:11;;;;;;;3.22;1.92;;;;;;;1.59;71.40;97898.71;1698788;84;21169;-60
2021/01/26 10:04:40;;;;;;;4.15;2.40;;;;;;;1.64;71.46;97903.28;1684726;83;21570;-60
2021/01/26 10:07:14;;;;;;;4.12;2.60;;;;;;;1.55;70.80;97900.30;1709798;82;21156;-60
2021/01/26 10:09:42;;;;;;;4.55;2.30;;;;;;;1.56;70.79;97896.52;1685795;85;21216;-60
2021/01/26 10:12:36;;;;;;;4.53;2.70;;;;;;;1.61;71.10;97914.53;1666769;83;21648;-61
2021/01/26 10:15:29;;;;;;;3.80;1.92;;;;;;;1.61;71.03;97915.88;1715949;83;21763;-60
2021/01/26 10:18:17;;;;;;;4.45;2.40;;;;;;;1.62;71.07;97912.13;1707262;84;21142;-60
2021/01/26 10:20:53;;;;;;;4.37;2.77;;;;;;;1.57;71.12;97912.09;1709288;84;21169;-60
2021/01/26 10:23:41;;;;;;;4.58;2.80;;;;;;;1.58;70.92;97912.37;1691408;84;21167;-59
2021/01/26 10:26:19;;;;;;;3.08;2.10;;;;;;;1.57;70.56;97926.30;1676664;84;21308;-60
2021/01/26 10:29:11;;;;;;;6.53;3.27;;;;;;;1.58;70.82;97929.80;1676803;84;21196;-60
2021/01/26 10:32:01;;;;;;;5.22;2.70;;;;;;;1.59;70.81;97947.52;1662281;85;21190;-60
2021/01/26 10:34:39;;;;;;;6.55;3.22;;;;;;;1.63;70.86;97941.36;1675168;84;21212;-60
2021/01/26 10:37:24;;;;;;;10.00;3.35;;;;;;;1.56;70.83;97936.75;1704420;84;21183;-60
2021/01/26 10:40:31;;;;;;;5.75;2.72;;;;;;;1.55;70.44;97947.22;1707579;84;21320;-60
2021/01/26 10:43:06;;;;;;;4.12;2.27;;;;;;;1.57;70.49;97953.66;1687480;84;21186;-60
2021/01/26 10:45:48;;;;;;;4.72;2.30;;;;;;;1.63;70.36;97952.65;1676060;84;21581;-61
2021/01/26 10:48:26;;;;;;;4.50;2.30;;;;;;;1.57;70.72;97952.31;1687354;84;21639;-60
2021/01/26 10:50:55;;;;;;;4.97;2.98;;;;;;;1.61;70.78;97967.64;1677663;85;21823;-60
2021/01/26 10:53:46;;;;;;;4.03;2.12;;;;;;;1.59;70.43;97973.00;1660366;86;21257;-60
2021/01/26 10:56:14;;;;;;;4.17;2.30;;;;;;;1.60;70.26;97959.84;1644971;86;21804;-60
2021/01/26 10:58:42;;;;;;;4.50;2.77;;;;;;;1.60;70.50;97973.25;1644793;85;21238;-60
2021/01/26 11:01:11;;;;;;;4.25;2.30;;;;;;;1.58;70.75;97978.08;1645731;87;21213;-60
2021/01/26 11:03:38;;;;;;;3.75;2.30;;;;;;;1.55;70.60;97978.59;1646936;85;21621;-60
2021/01/26 11:06:07;;;;;;;3.67;2.27;;;;;;;1.64;70.61;97981.06;1709133;84;21319;-60
2021/01/26 11:08:34;;;;;;;8.13;4.17;;;;;;;1.68;70.56;97978.15;1709066;84;21182;-60
2021/01/26 11:11:01;;;;;;;4.58;2.55;;;;;;;1.58;70.71;97988.80;1709267;84;21703;-60
2021/01/26 11:13:29;;;;;;;5.90;3.02;;;;;;;1.66;70.53;97980.30;1682013;84;21335;-61
2021/01/26 11:15:56;;;;;;;3.55;2.20;;;;;;;1.69;70.55;97991.84;1708960;83;21188;-60
2021/01/26 11:18:23;;;;;;;3.83;2.52;;;;;;;1.68;70.45;97987.53;1722613;83;21169;-60
2021/01/26 11:20:53;;;;;;;3.17;1.87;;;;;;;1.74;70.62;97995.89;1722690;82;21137;-60
2021/01/26 11:23:20;;;;;;;4.42;2.25;;;;;;;1.73;70.32;97992.95;1720751;83;21323;-60
2021/01/26 11:25:47;;;;;;;4.42;2.25;;;;;;;1.80;69.82;97989.52;1720527;83;21185;-60
2021/01/26 11:28:15;;;;;;;2.70;1.80;;;;;;;1.88;69.46;98005.11;1722707;83;21593;-60
2021/01/26 11:30:42;;;;;;;3.85;2.10;;;;;;;1.84;69.03;97985.26;1722547;83;21543;-60
2021/01/26 11:33:11;;;;;;;4.17;2.40;;;;;;;1.85;69.23;98000.27;1715960;83;21157;-61
2021/01/26 11:35:38;;;;;;;3.15;2.12;;;;;;;1.92;69.10;98011.06;1693166;83;21221;-60
2021/01/26 11:38:06;;;;;;;3.58;2.17;;;;;;;1.94;69.09;98008.12;1656906;86;21214;-60
2021/01/26 11:40:33;;;;;;;4.87;2.35;;;;;;;1.95;69.01;98011.06;1693324;83;21160;-60
2021/01/26 11:43:01;;;;;;;3.62;2.33;;;;;;;2.02;69.30;98004.94;1655654;86;21188;-60
2021/01/26 11:45:37;;;;;;;5.05;2.10;;;;;;;2.00;69.08;98019.16;1695651;83;21569;-60
2021/01/26 11:48:06;;;;;;;3.08;1.90;;;;;;;2.02;68.78;98018.36;1696296;83;21647;-60
2021/01/26 11:50:35;;;;;;;4.00;2.25;;;;;;;1.85;68.52;98009.13;1719951;82;21161;-60
2021/01/26 11:53:07;;;;;;;5.08;2.35;;;;;;;2.06;68.77;98030.20;1701135;83;21167;-60
2021/01/26 11:55:35;;;;;;;4.80;2.15;;;;;;;2.06;68.98;98050.86;1709961;83;21156;-60
2021/01/26 11:58:03;;;;;;;4.20;2.25;;;;;;;2.04;68.29;98038.25;1722489;83;21179;-60
2021/01/26 12:00:32;;;;;;;5.20;2.42;;;;;;;2.03;68.42;98042.80;1719510;83;21157;-60
2021/01/26 12:03:01;;;;;;;3.40;2.20;;;;;;;2.07;68.60;98043.09;1654393;86;21311;-60
2021/01/26 12:05:30;;;;;;;3.45;2.27;;;;;;;2.08;68.12;98060.30;1722705;83;21157;-60
2021/01/26 12:07:58;;;;;;;4.28;2.35;;;;;;;2.08;68.10;98052.77;1722721;82;21426;-59
2021/01/26 12:10:25;;;;;;;4.28;1.90;;;;;;;2.09;68.06;98044.45;1722788;83;21523;-61
2021/01/26 12:12:54;;;;;;;4.20;2.20;;;;;;;2.11;67.93;98075.07;1722568;83;21185;-60
2021/01/26 12:15:27;;;;;;;4.35;2.77;;;;;;;2.11;68.67;98058.44;1720875;83;21616;-61
2021/01/26 12:17:55;;;;;;;5.33;2.70;;;;;;;2.11;68.33;98066.48;1722692;82;21165;-60
2021/01/26 12:20:22;;;;;;;3.25;1.80;;;;;;;2.12;67.97;98070.80;1720585;83;21530;-61
2021/01/26 12:22:50;;;;;;;3.10;2.10;;;;;;;2.14;68.09;98075.37;1722626;83;21292;-60
2021/01/26 12:25:19;;;;;;;4.28;2.30;;;;;;;2.10;67.97;98058.16;1722622;83;21209;-60
2021/01/26 12:27:47;;;;;;;4.62;2.20;;;;;;;2.07;68.15;98071.28;1722521;83;21185;-60
2021/01/26 12:30:16;;;;;;;4.00;2.15;;;;;;;2.07;68.33;98088.20;1697260;83;21730;-60
2021/01/26 12:32:44;;;;;;;3.72;2.02;;;;;;;2.12;68.25;98094.14;1656547;86;21238;-60
2021/01/26 12:35:26;;;;;;;4.67;2.30;;;;;;;2.09;68.16;98092.77;1692232;85;21197;-60
2021/01/26 12:37:54;;;;;;;3.33;2.00;;;;;;;2.10;68.10;98089.02;1692113;85;21193;-60
2021/01/26 12:40:22;;;;;;;4.65;2.17;;;;;;;2.15;68.39;98099.00;1714821;83;21180;-60
2021/01/26 12:42:49;;;;;;;5.00;2.30;;;;;;;2.14;67.94;98100.87;1722626;83;21635;-60
2021/01/26 12:45:20;;;;;;;4.20;2.40;;;;;;;2.16;67.92;98104.09;1722626;83;21580;-60
2021/01/26 12:47:48;;;;;;;5.42;2.52;;;;;;;2.17;67.49;98104.38;1717158;83;21169;-60
2021/01/26 12:50:19;;;;;;;3.12;1.98;;;;;;;2.15;67.46;98111.08;1722873;83;21149;-61
2021/01/26 12:52:47;;;;;;;4.17;2.12;;;;;;;2.15;67.93;98122.62;1720923;83;21177;-60
2021/01/26 12:55:14;;;;;;;5.55;2.50;;;;;;;2.13;67.78;98114.00;1693762;84;21193;-60
2021/01/26 12:57:42;;;;;;;3.70;2.37;;;;;;;2.17;67.72;98126.38;1672183;83;21227;-60
2021/01/26 13:00:12;;;;;;;4.37;2.45;;;;;;;2.08;67.30;98123.38;1720817;83;21206;-60
2021/01/26 13:02:40;;;;;;;3.92;2.22;;;;;;;2.11;67.93;98124.73;1722507;83;21191;-60
2021/01/26 13:05:08;;;;;;;5.85;2.70;;;;;;;2.08;68.13;98136.80;1722706;83;21198;-60
2021/01/26 13:07:36;;;;;;;4.83;3.10;;;;;;;2.05;68.34;98129.27;1720706;83;21125;-61
2021/01/26 13:10:07;;;;;;;5.97;3.15;;;;;;;2.08;68.46;98142.69;1722740;83;21306;-60
2021/01/26 13:12:35;;;;;;;5.60;3.27;;;;;;;2.00;68.76;98144.78;1718842;83;21161;-60
2021/01/26 13:15:05;;;;;;;5.95;2.83;;;;;;;1.98;68.99;98155.50;1722773;83;21168;-61
2021/01/26 13:17:33;;;;;;;5.17;2.70;;;;;;;1.96;68.67;98148.22;1688086;83;21134;-62
2021/01/26 13:20:01;;;;;;;4.95;2.95;;;;;;;1.95;69.04;98134.52;1693970;84;21490;-62
2021/01/26 13:22:29;;;;;;;6.40;2.85;;;;;;;1.98;69.12;98153.59;1689309;84;21157;-60
2021/01/26 13:24:56;;;;;;;4.87;2.90;;;;;;;1.95;69.14;98155.98;1703525;82;21191;-61
2021/01/26 13:27:24;;;;;;;5.00;2.92;;;;;;;1.92;68.96;98161.86;1707938;84;21200;-60
2021/01/26 13:29:53;;;;;;;4.15;2.65;;;;;;;1.93;69.04;98167.52;1705161;82;21150;-60
2021/01/26 13:32:21;;;;;;;4.53;3.22;;;;;;;1.93;68.39;98160.81;1709324;84;21202;-60
2021/01/26 13:34:49;;;;;;;5.30;2.92;;;;;;;1.91;68.68;98164.29;1709216;84;21193;-60
2021/01/26 13:37:17;;;;;;;5.58;2.85;;;;;;;1.89;68.37;98168.55;1702668;84;21731;-60
2021/01/26 13:39:46;;;;;;;4.92;3.15;;;;;;;1.89;68.58;98169.08;1680051;84;21925;-60
2021/01/26 13:42:13;;;;;;;5.37;3.40;;;;;;;1.92;68.92;98184.67;1679339;85;21170;-60
2021/01/26 13:44:47;;;;;;;6.28;3.15;;;;;;;1.90;68.76;98180.10;1679585;85;21466;-60
2021/01/26 13:47:12;;;;;;;4.55;2.80;;;;;;;1.92;68.89;98187.36;1615148;88;21636;-60
2021/01/26 13:49:40;;;;;;;4.42;2.50;;;;;;;1.89;68.46;98182.50;1690629;84;21723;-60
2021/01/26 13:52:08;;;;;;;4.33;3.02;;;;;;;1.88;68.40;98182.21;1689438;84;21181;-60
2021/01/26 13:54:35;;;;;;;4.65;2.90;;;;;;;1.87;68.55;98184.64;1709261;84;21232;-60
2021/01/26 13:57:04;;;;;;;4.60;2.77;;;;;;;1.90;68.60;98194.86;1709140;84;21193;-59
2021/01/26 13:59:31;;;;;;;5.45;3.25;;;;;;;1.84;68.60;98173.86;1680873;84;21686;-60
2021/01/26 14:01:59;;;;;;;5.20;3.25;;;;;;;1.84;68.62;98189.17;1680584;85;21201;-60
2021/01/26 14:04:27;;;;;;;5.25;3.10;;;;;;;1.82;68.54;98197.46;1680786;84;21359;-60
2021/01/26 14:06:54;;;;;;;5.22;2.85;;;;;;;1.79;68.76;98203.34;1660031;85;21628;-60
2021/01/26 14:09:22;;;;;;;5.42;2.95;;;;;;;1.81;68.44;98207.09;1701462;84;21664;-60
2021/01/26 14:11:52;;;;;;;4.72;3.00;;;;;;;1.82;68.66;98206.86;1693312;84;21198;-60
2021/01/26 14:14:19;;;;;;;5.33;2.98;;;;;;;1.77;68.69;98201.98;1660674;85;21737;-60
2021/01/26 14:16:47;;;;;;;4.30;3.08;;;;;;;1.73;68.83;98212.94;1639384;86;21176;-59
2021/01/26 14:19:16;;;;;;;4.80;3.33;;;;;;;1.78;68.77;98219.67;1698056;84;21250;-60
2021/01/26 14:21:43;;;;;;;4.85;3.27;;;;;;;1.70;68.73;98218.25;1697875;84;21214;-60
2021/01/26 14:24:11;;;;;;;5.90;2.83;;;;;;;1.66;68.97;98224.39;1697838;84;21610;-60
2021/01/26 14:26:39;;;;;;;4.80;3.20;;;;;;;1.64;68.86;98221.12;1681957;84;21198;-60
2021/01/26 14:29:08;;;;;;;5.15;3.52;;;;;;;1.62;69.19;98233.98;1696365;84;21718;-60
2021/01/26 14:31:35;;;;;;;6.35;3.75;;;;;;;1.62;69.43;98236.67;1697748;84;21804;-60
2021/01/26 14:34:03;;;;;;;5.67;3.60;;;;;;;1.59;69.43;98237.18;1697901;84;21574;-60
2021/01/26 14:36:31;;;;;;;5.40;3.42;;;;;;;1.61;69.51;98240.41;1697591;84;21167;-60
2021/01/26 14:38:58;;;;;;;5.60;3.62;;;;;;;1.57;69.56;98249.48;1697789;84;21629;-59
2021/01/26 14:41:26;;;;;;;5.95;3.62;;;;;;;1.54;69.75;98254.02;1697737;84;21182;-60
2021/01/26 14:43:54;;;;;;;6.28;3.95;;;;;;;1.54;69.70;98266.08;1682291;84;21624;-60
2021/01/26 14:46:27;;;;;;;5.67;3.87;;;;;;;1.52;69.87;98266.05;1697731;84;21717;-60
2021/01/26 14:48:55;;;;;;;6.35;4.05;;;;;;;1.49;69.78;98258.77;1697694;84;21225;-60
2021/01/26 14:51:23;;;;;;;5.55;3.62;;;;;;;1.47;70.15;98269.48;1697940;84;21705;-59
2021/01/26 14:56:26;;;;;;;6.22;3.70;;;;;;;1.52;70.20;98284.83;1778795;79;23574;-59
2021/01/26 14:58:54;;;;;;;6.00;3.77;;;;;;;1.44;69.89;98278.84;1738896;82;21185;-60
2021/01/26 15:01:21;;;;;;;9.05;5.95;;;;;;;1.46;70.02;98282.06;1722533;83;21157;-60
2021/01/26 15:03:51;;;;;;;7.65;4.22;;;;;;;1.45;69.96;98294.40;1722518;82;21234;-60
2021/01/26 15:06:19;;;;;;;5.70;4.17;;;;;;;1.42;69.85;98294.34;1721009;82;21121;-60
2021/01/26 15:08:46;;;;;;;5.75;4.05;;;;;;;1.42;70.03;98293.00;1722504;82;21194;-60
2021/01/26 15:11:13;;;;;;;6.05;3.98;;;;;;;1.41;70.09;98303.99;1722655;83;21177;-60
2021/01/26 15:13:41;;;;;;;7.03;4.30;;;;;;;1.34;69.97;98295.31;1722493;82;21177;-60
2021/01/26 15:16:08;;;;;;;6.12;3.90;;;;;;;1.34;70.07;98310.06;1725396;83;21187;-60
2021/01/26 15:18:36;;;;;;;7.15;4.37;;;;;;;1.28;70.26;98309.69;1725447;83;21151;-60
2021/01/26 15:21:04;;;;;;;6.87;4.78;;;;;;;1.33;70.08;98318.63;1725559;83;21195;-60
2021/01/26 15:23:32;;;;;;;5.65;4.15;;;;;;;1.31;70.01;98318.05;1725480;83;21156;-60
2021/01/26 15:25:59;;;;;;;5.87;3.85;;;;;;;1.33;69.98;98321.31;1674381;84;21133;-61
2021/01/26 15:28:26;;;;;;;5.62;3.92;;;;;;;1.33;69.91;98320.50;1710376;82;21561;-60
2021/01/26 15:30:54;;;;;;;7.80;4.40;;;;;;;1.31;69.92;98308.66;1672995;84;21326;-60
2021/01/26 15:33:22;;;;;;;5.78;3.75;;;;;;;1.30;69.88;98315.63;1693771;85;21189;-59
2021/01/26 15:35:49;;;;;;;6.08;3.85;;;;;;;1.26;69.66;98318.52;1677779;83;21181;-60
2021/01/26 15:38:16;;;;;;;6.28;4.17;;;;;;;1.31;69.59;98323.41;1722694;82;21303;-60
2021/01/26 15:40:43;;;;;;;7.03;4.83;;;;;;;1.25;69.78;98336.47;1722508;82;21224;-59
2021/01/26 15:43:11;;;;;;;5.90;3.92;;;;;;;1.24;69.83;98332.16;1722490;82;21177;-60
2021/01/26 15:45:38;;;;;;;6.90;4.60;;;;;;;1.19;69.86;98333.44;1697235;83;21321;-60
2021/01/26 15:48:07;;;;;;;6.72;4.17;;;;;;;1.19;70.03;98332.62;1693670;85;21181;-60
2021/01/26 15:50:35;;;;;;;5.95;3.87;;;;;;;1.11;70.25;98344.56;1666585;85;21620;-60
2021/01/26 15:53:03;;;;;;;6.75;4.22;;;;;;;1.13;70.24;98351.03;1693613;85;21323;-59
2021/01/26 15:55:30;;;;;;;5.55;3.92;;;;;;;1.07;70.30;98356.00;1648015;86;21659;-60
2021/01/26 15:57:57;;;;;;;6.08;4.65;;;;;;;1.05;70.10;98358.95;1682944;84;21174;-59
2021/01/26 16:00:26;;;;;;;5.62;4.12;;;;;;;1.09;70.24;98361.43;1698348;84;21207;-60
2021/01/26 16:02:54;;;;;;;6.47;4.30;;;;;;;1.10;70.50;98359.01;1695618;84;21167;-60
2021/01/26 16:05:21;;;;;;;7.55;4.95;;;;;;;1.09;70.19;98364.11;1670342;86;21280;-59
2021/01/26 16:07:49;;;;;;;6.97;4.62;;;;;;;1.11;70.38;98378.59;1669968;85;21190;-60
2021/01/26 16:10:17;;;;;;;7.53;4.25;;;;;;;1.09;70.30;98370.80;1654736;86;21277;-58
2021/01/26 16:12:44;;;;;;;6.65;4.70;;;;;;;1.10;70.22;98381.79;1669916;85;21332;-58
2021/01/26 16:15:12;;;;;;;6.60;4.65;;;;;;;1.11;70.18;98392.80;1693590;84;21229;-58
2021/01/26 16:17:42;;;;;;;7.55;5.05;;;;;;;1.10;70.17;98393.06;1701335;84;21185;-59
2021/01/26 16:20:12;;;;;;;8.50;4.53;;;;;;;1.11;70.26;98395.48;1681945;84;21920;-59
2021/01/26 16:22:40;;;;;;;8.10;4.60;;;;;;;1.13;70.16;98390.71;1684420;84;21637;-59
2021/01/26 16:25:13;;;;;;;6.17;4.12;;;;;;;1.10;70.34;98405.91;1684380;84;21158;-60
2021/01/26 16:27:40;;;;;;;8.05;4.90;;;;;;;1.11;70.27;98405.39;1686597;84;21143;-61
2021/01/26 16:30:09;;;;;;;7.78;4.65;;;;;;;1.14;70.35;98415.62;1696756;84;21686;-59
2021/01/26 16:32:37;;;;;;;7.62;4.90;;;;;;;1.09;70.27;98423.59;1673439;84;21194;-61
2021/01/26 16:35:06;;;;;;;6.87;4.28;;;;;;;1.15;70.31;98427.45;1693700;83;21641;-60
2021/01/26 16:37:34;;;;;;;8.00;5.55;;;;;;;1.11;70.02;98431.67;1680707;84;21171;-60
2021/01/26 16:40:08;;;;;;;7.55;4.72;;;;;;;1.12;70.41;98440.00;1683415;84;21179;-60
2021/01/26 16:42:36;;;;;;;6.90;4.92;;;;;;;1.15;70.30;98438.70;1682980;84;21159;-60
2021/01/26 16:45:05;;;;;;;7.83;5.40;;;;;;;1.12;70.36;98441.86;1670261;84;21321;-60
2021/01/26 16:47:34;;;;;;;6.65;4.45;;;;;;;1.17;70.25;98446.77;1672747;84;21175;-60
2021/01/26 16:50:11;;;;;;;7.03;4.80;;;;;;;1.15;70.46;98448.89;1667515;86;21216;-60
2021/01/26 16:52:38;;;;;;;6.70;4.55;;;;;;;1.14;70.26;98459.32;1652341;85;21166;-59